createdAt,value
2019-05-03T00:00:27.009Z,11.90
2019-05-03T00:01:26.963Z,11.20
2019-05-03T00:02:27.040Z,11.60
2019-05-03T00:03:26.944Z,14.70
2019-05-03T00:04:27.067Z,15.80
2019-05-03T00:05:26.914Z,11.20
2019-05-03T00:06:26.951Z,14.80
2019-05-03T00:07:26.896Z,17.10
2019-05-03T00:08:26.959Z,13.40
2019-05-03T00:09:26.899Z,14.80
2019-05-03T00:10:26.974Z,15.90
2019-05-03T00:11:26.855Z,14.10
2019-05-03T00:13:27.964Z,12.60
2019-05-03T00:14:26.960Z,14.10
2019-05-03T00:15:26.804Z,13.40
2019-05-03T00:16:26.919Z,12.40
2019-05-03T00:17:26.783Z,11.80
2019-05-03T00:18:26.832Z,14.60
2019-05-03T00:19:26.798Z,18.50
2019-05-03T00:20:26.843Z,13.90
2019-05-03T00:21:26.744Z,11.00
2019-05-03T00:22:26.852Z,13.30
2019-05-03T00:23:26.715Z,10.00
2019-05-03T00:24:26.815Z,14.80
2019-05-03T00:25:26.728Z,13.20
2019-05-03T00:26:26.786Z,15.10
2019-05-03T00:27:26.674Z,15.20
2019-05-03T00:29:27.790Z,14.30
2019-05-03T00:30:26.875Z,15.20
2019-05-03T00:31:26.764Z,14.10
2019-05-03T00:32:26.868Z,15.30
2019-05-03T00:33:26.750Z,14.00
2019-05-03T00:34:26.773Z,13.90
2019-05-03T00:35:26.609Z,15.00
2019-05-03T00:36:26.645Z,14.20
2019-05-03T00:37:26.590Z,14.70
2019-05-03T00:38:26.659Z,17.90
2019-05-03T00:39:26.546Z,12.60
2019-05-03T00:40:26.604Z,13.90
2019-05-03T00:41:26.528Z,15.10
2019-05-03T00:42:26.589Z,13.60
2019-05-03T00:43:26.498Z,14.20
2019-05-03T00:44:26.612Z,14.10
2019-05-03T00:45:26.519Z,15.20
2019-05-03T00:46:26.616Z,17.00
2019-05-03T00:47:26.460Z,13.60
2019-05-03T00:48:26.531Z,17.10
2019-05-03T00:49:26.431Z,15.10
2019-05-03T00:50:26.591Z,15.00
2019-05-03T00:51:26.406Z,17.00
2019-05-03T00:52:26.452Z,18.50
2019-05-03T00:53:26.385Z,16.80
2019-05-03T00:54:26.464Z,19.70
2019-05-03T00:55:26.419Z,18.30
2019-05-03T00:56:26.477Z,17.60
2019-05-03T00:57:26.338Z,16.50
2019-05-03T00:58:26.389Z,16.90
2019-05-03T00:59:26.317Z,17.30
2019-05-03T01:00:26.448Z,17.60
2019-05-03T01:01:26.295Z,18.10
2019-05-03T01:02:26.490Z,17.10
2019-05-03T01:03:26.272Z,16.40
2019-05-03T01:04:26.334Z,17.60
2019-05-03T01:05:26.254Z,17.70
2019-05-03T01:06:26.384Z,17.20
2019-05-03T01:07:26.239Z,17.80
2019-05-03T01:08:26.261Z,18.90
2019-05-03T01:09:26.210Z,16.50
2019-05-03T01:10:26.273Z,17.60
2019-05-03T01:11:26.219Z,16.10
2019-05-03T01:12:26.279Z,18.30
2019-05-03T01:13:26.169Z,18.50
2019-05-03T01:14:26.192Z,20.30
2019-05-03T01:15:26.153Z,20.10
2019-05-03T01:16:26.259Z,19.00
2019-05-03T01:17:26.117Z,18.30
2019-05-03T01:18:26.224Z,16.60
2019-05-03T01:19:26.091Z,17.30
2019-05-03T01:20:26.136Z,18.00
2019-05-03T01:21:26.125Z,15.80
2019-05-03T01:22:26.150Z,20.80
2019-05-03T01:23:26.052Z,15.50
2019-05-03T01:24:26.161Z,16.80
2019-05-03T01:25:32.414Z,18.30
2019-05-03T01:26:27.154Z,21.40
2019-05-03T01:27:26.013Z,19.10
2019-05-03T01:28:26.089Z,17.10
2019-05-03T01:29:25.985Z,16.80
2019-05-03T01:30:25.998Z,20.40
2019-05-03T01:31:25.995Z,17.70
2019-05-03T01:32:26.023Z,18.10
2019-05-03T01:33:25.957Z,20.60
2019-05-03T01:34:26.027Z,20.50
2019-05-03T01:35:25.914Z,21.50
2019-05-03T01:36:25.997Z,17.20
2019-05-03T01:37:25.899Z,21.50
2019-05-03T01:38:25.958Z,18.10
2019-05-03T01:39:25.877Z,17.70
2019-05-03T01:40:25.972Z,23.40
2019-05-03T01:41:25.847Z,18.50
2019-05-03T01:42:25.929Z,15.90
2019-05-03T01:43:25.869Z,19.40
2019-05-03T01:44:25.895Z,23.90
2019-05-03T01:45:25.807Z,20.40
2019-05-03T01:46:25.907Z,21.30
2019-05-03T01:47:25.805Z,19.00
2019-05-03T01:48:25.817Z,21.60
2019-05-03T01:49:25.758Z,23.10
2019-05-03T01:50:25.832Z,21.80
2019-05-03T01:51:25.741Z,18.30
2019-05-03T01:52:25.898Z,20.00
2019-05-03T01:53:25.720Z,19.70
2019-05-03T01:54:25.755Z,20.00
2019-05-03T01:55:25.694Z,21.20
2019-05-03T01:56:25.767Z,19.50
2019-05-03T01:57:25.716Z,21.50
2019-05-03T01:58:25.715Z,19.00
2019-05-03T01:59:25.649Z,20.00
2019-05-03T02:00:25.694Z,20.10
2019-05-03T02:01:25.633Z,22.60
2019-05-03T02:02:25.752Z,18.20
2019-05-03T02:03:25.625Z,22.70
2019-05-03T02:04:25.624Z,20.80
2019-05-03T02:05:25.594Z,19.70
2019-05-03T02:06:25.637Z,23.70
2019-05-03T02:07:25.594Z,21.60
2019-05-03T02:08:25.681Z,17.00
2019-05-03T02:09:25.569Z,22.50
2019-05-03T02:10:25.559Z,21.00
2019-05-03T02:11:25.527Z,19.00
2019-05-03T02:12:25.583Z,21.70
2019-05-03T02:13:25.520Z,19.20
2019-05-03T02:14:25.592Z,21.50
2019-05-03T02:15:25.496Z,20.30
2019-05-03T02:16:25.505Z,25.00
2019-05-03T02:17:25.448Z,19.50
2019-05-03T02:18:26.426Z,22.00
2019-05-03T02:19:25.432Z,20.40
2019-05-03T02:20:25.532Z,22.40
2019-05-03T02:21:25.399Z,20.60
2019-05-03T02:22:25.470Z,20.40
2019-05-03T02:23:25.404Z,22.30
2019-05-03T02:24:25.493Z,17.60
2019-05-03T02:25:25.359Z,21.40
2019-05-03T02:26:25.484Z,21.00
2019-05-03T02:27:25.340Z,22.90
2019-05-03T02:28:25.382Z,19.80
2019-05-03T02:29:25.367Z,19.40
2019-05-03T02:30:25.400Z,20.20
2019-05-03T02:31:25.300Z,20.70
2019-05-03T02:32:25.413Z,20.60
2019-05-03T02:33:25.305Z,21.80
2019-05-03T02:34:25.367Z,21.90
2019-05-03T02:35:25.255Z,22.30
2019-05-03T02:36:25.339Z,18.80
2019-05-03T02:37:25.229Z,24.20
2019-05-03T02:38:25.246Z,20.30
2019-05-03T02:39:25.250Z,22.70
2019-05-03T02:40:25.265Z,20.30
2019-05-03T02:41:25.189Z,26.20
2019-05-03T02:42:26.512Z,18.40
2019-05-03T02:43:26.193Z,23.60
2019-05-03T02:44:26.585Z,19.90
2019-05-03T02:45:25.889Z,19.70
2019-05-03T02:46:25.517Z,19.60
2019-05-03T02:47:26.519Z,27.10
2019-05-03T02:48:25.635Z,23.90
2019-05-03T02:49:25.797Z,21.40
2019-05-03T02:50:26.071Z,22.60
2019-05-03T02:51:25.984Z,20.50
2019-05-03T02:52:25.644Z,28.40
2019-05-03T02:53:25.821Z,21.50
2019-05-03T02:54:26.824Z,20.30
2019-05-03T02:55:26.112Z,21.40
2019-05-03T02:56:26.178Z,22.30
2019-05-03T02:57:25.828Z,22.60
2019-05-03T02:58:25.407Z,21.60
2019-05-03T02:59:26.407Z,23.70
2019-05-03T03:00:25.494Z,21.70
2019-05-03T03:01:26.301Z,23.20
2019-05-03T03:02:26.385Z,22.20
2019-05-03T03:03:25.536Z,21.60
2019-05-03T03:04:25.991Z,28.10
2019-05-03T03:05:25.353Z,23.90
2019-05-03T03:06:26.683Z,26.50
2019-05-03T03:07:25.881Z,18.40
2019-05-03T03:08:25.261Z,25.30
2019-05-03T03:09:25.862Z,22.20
2019-05-03T03:10:26.409Z,19.80
2019-05-03T03:11:26.127Z,26.30
2019-05-03T03:12:25.784Z,22.20
2019-05-03T03:13:25.429Z,21.30
2019-05-03T03:14:25.763Z,24.40
2019-05-03T03:15:25.705Z,21.50
2019-05-03T03:16:25.252Z,22.10
2019-05-03T03:17:25.462Z,27.20
2019-05-03T03:18:25.508Z,26.30
2019-05-03T03:19:26.180Z,21.60
2019-05-03T03:20:25.429Z,20.80
2019-05-03T03:21:26.052Z,21.80
2019-05-03T03:22:25.977Z,25.90
2019-05-03T03:23:26.336Z,23.30
2019-05-03T03:24:25.881Z,22.40
2019-05-03T03:25:25.802Z,21.10
2019-05-03T03:26:34.527Z,23.80
2019-05-03T03:27:25.960Z,24.00
2019-05-03T03:28:25.373Z,23.40
2019-05-03T03:29:25.485Z,20.20
2019-05-03T03:30:29.058Z,22.70
2019-05-03T03:31:28.523Z,25.10
2019-05-03T03:32:28.997Z,23.90
2019-05-03T03:33:28.160Z,21.80
2019-05-03T03:34:28.027Z,21.40
2019-05-03T03:35:29.096Z,23.70
2019-05-03T03:36:44.813Z,23.10
2019-05-03T03:37:26.099Z,24.40
2019-05-03T03:38:26.114Z,17.50
2019-05-03T03:39:25.947Z,23.40
2019-05-03T03:40:25.470Z,27.20
2019-05-03T03:41:25.029Z,25.80
2019-05-03T03:42:25.159Z,21.50
2019-05-03T03:43:25.926Z,19.20
2019-05-03T03:44:25.623Z,21.40
2019-05-03T03:45:25.393Z,28.70
2019-05-03T03:46:25.142Z,20.20
2019-05-03T03:47:27.387Z,22.00
2019-05-03T03:48:26.538Z,17.70
2019-05-03T03:49:26.162Z,22.00
2019-05-03T03:50:25.872Z,23.10
2019-05-03T03:51:26.399Z,19.70
2019-05-03T03:52:25.480Z,24.90
2019-05-03T03:53:26.370Z,24.20
2019-05-03T03:54:26.102Z,24.00
2019-05-03T03:55:26.406Z,21.00
2019-05-03T03:56:25.589Z,23.50
2019-05-03T03:57:25.265Z,23.30
2019-05-03T03:58:27.031Z,25.40
2019-05-03T03:59:26.507Z,25.30
2019-05-03T04:00:25.851Z,21.30
2019-05-03T04:01:26.690Z,24.80
2019-05-03T04:02:26.526Z,22.80
2019-05-03T04:03:25.996Z,19.70
2019-05-03T04:04:26.018Z,19.00
2019-05-03T04:05:25.452Z,24.10
2019-05-03T04:06:26.640Z,22.70
2019-05-03T04:07:26.245Z,21.40
2019-05-03T04:08:25.186Z,20.90
2019-05-03T04:09:25.562Z,27.00
2019-05-03T04:10:26.130Z,20.90
2019-05-03T04:11:25.913Z,23.80
2019-05-03T04:12:26.605Z,24.60
2019-05-03T04:13:25.516Z,22.30
2019-05-03T04:14:25.399Z,20.80
2019-05-03T04:15:26.067Z,22.40
2019-05-03T04:16:25.862Z,27.00
2019-05-03T04:17:26.132Z,17.10
2019-05-03T04:18:25.540Z,22.40
2019-05-03T04:19:25.119Z,22.80
2019-05-03T04:20:25.724Z,23.10
2019-05-03T04:21:25.486Z,24.70
2019-05-03T04:22:25.384Z,21.60
2019-05-03T04:23:26.373Z,22.80
2019-05-03T04:24:25.892Z,29.40
2019-05-03T04:25:26.136Z,19.80
2019-05-03T04:26:29.570Z,18.80
2019-05-03T04:27:27.616Z,19.10
2019-05-03T04:28:25.538Z,15.00
2019-05-03T04:29:25.414Z,18.60
2019-05-03T04:30:25.661Z,25.30
2019-05-03T04:31:26.212Z,15.90
2019-05-03T04:32:28.127Z,17.40
2019-05-03T04:33:26.592Z,17.10
2019-05-03T04:34:26.172Z,17.70
2019-05-03T04:35:26.538Z,23.70
2019-05-03T04:36:26.240Z,20.70
2019-05-03T04:37:26.311Z,20.20
2019-05-03T04:38:25.794Z,22.10
2019-05-03T04:39:25.630Z,14.90
2019-05-03T04:40:25.950Z,18.90
2019-05-03T04:41:26.630Z,15.70
2019-05-03T04:42:25.350Z,21.80
2019-05-03T04:43:26.463Z,19.00
2019-05-03T04:44:26.013Z,19.40
2019-05-03T04:45:25.585Z,19.00
2019-05-03T04:46:25.934Z,20.40
2019-05-03T04:47:26.073Z,19.70
2019-05-03T04:48:25.294Z,17.10
2019-05-03T04:49:26.182Z,14.00
2019-05-03T04:50:25.567Z,18.40
2019-05-03T04:51:25.820Z,16.70
2019-05-03T04:52:25.990Z,17.50
2019-05-03T04:53:25.892Z,19.10
2019-05-03T04:54:25.300Z,14.40
2019-05-03T04:55:26.317Z,15.90
2019-05-03T04:56:25.899Z,14.00
2019-05-03T04:57:36.369Z,16.50
2019-05-03T04:58:25.820Z,15.00
2019-05-03T04:59:25.427Z,18.00
2019-05-03T05:00:25.721Z,17.10
2019-05-03T05:01:25.952Z,19.80
2019-05-03T05:02:26.442Z,20.60
2019-05-03T05:03:23.742Z,13.10
2019-05-03T05:04:25.370Z,19.30
2019-05-03T05:05:26.213Z,14.80
2019-05-03T05:06:25.811Z,14.50
2019-05-03T05:07:25.984Z,14.70
2019-05-03T05:08:25.257Z,15.20
2019-05-03T05:09:25.911Z,16.10
2019-05-03T05:10:26.016Z,16.00
2019-05-03T05:11:26.107Z,15.40
2019-05-03T05:12:25.188Z,15.50
2019-05-03T05:13:25.019Z,14.00
2019-05-03T05:14:25.671Z,14.40
2019-05-03T05:15:26.027Z,16.70
2019-05-03T05:16:25.122Z,15.00
2019-05-03T05:17:26.083Z,17.70
2019-05-03T05:18:26.162Z,17.60
2019-05-03T05:19:25.336Z,15.90
2019-05-03T05:20:24.779Z,16.20
2019-05-03T05:21:25.269Z,16.60
2019-05-03T05:22:24.695Z,15.40
2019-05-03T05:23:25.090Z,15.40
2019-05-03T05:24:25.400Z,15.40
2019-05-03T05:25:25.144Z,16.00
2019-05-03T05:26:24.858Z,18.60
2019-05-03T05:27:25.417Z,15.30
2019-05-03T05:28:25.003Z,13.80
2019-05-03T05:29:25.242Z,15.70
2019-05-03T05:30:25.220Z,14.00
2019-05-03T05:31:25.314Z,13.20
2019-05-03T05:32:24.743Z,16.50
2019-05-03T05:33:25.190Z,18.70
2019-05-03T05:34:24.558Z,15.60
2019-05-03T05:35:24.825Z,16.40
2019-05-03T05:36:24.395Z,18.70
2019-05-03T05:37:24.991Z,13.80
2019-05-03T05:38:25.317Z,13.00
2019-05-03T05:39:24.488Z,17.00
2019-05-03T05:40:24.571Z,14.00
2019-05-03T05:41:24.469Z,15.20
2019-05-03T05:42:24.949Z,12.90
2019-05-03T05:43:25.356Z,14.20
2019-05-03T05:44:24.751Z,14.60
2019-05-03T05:45:24.592Z,14.30
2019-05-03T05:46:24.822Z,13.80
2019-05-03T05:47:25.293Z,13.10
2019-05-03T05:48:24.633Z,17.30
2019-05-03T05:49:23.214Z,11.20
2019-05-03T05:50:25.233Z,13.20
2019-05-03T05:51:24.801Z,15.10
2019-05-03T05:52:24.556Z,11.00
2019-05-03T05:53:25.190Z,11.60
2019-05-03T05:54:24.581Z,13.30
2019-05-03T05:55:25.159Z,13.60
2019-05-03T05:56:24.955Z,11.20
2019-05-03T05:57:23.045Z,14.60
2019-05-03T05:58:25.449Z,14.60
2019-05-03T05:59:24.796Z,12.50
2019-05-03T06:00:23.016Z,15.20
2019-05-03T06:01:24.898Z,14.50
2019-05-03T06:02:22.959Z,13.40
2019-05-03T06:03:23.405Z,13.40
2019-05-03T06:04:24.598Z,12.60
2019-05-03T06:05:25.052Z,14.60
2019-05-03T06:06:24.387Z,15.90
2019-05-03T06:07:24.837Z,13.20
2019-05-03T06:08:24.996Z,10.00
2019-05-03T06:09:22.939Z,15.60
2019-05-03T06:10:24.701Z,15.60
2019-05-03T06:11:23.002Z,12.40
2019-05-03T06:12:22.848Z,10.10
2019-05-03T06:13:22.961Z,9.70
2019-05-03T06:14:24.512Z,15.80
2019-05-03T06:15:24.984Z,11.30
2019-05-03T06:16:24.524Z,10.20
2019-05-03T06:17:24.551Z,11.20
2019-05-03T06:18:24.921Z,14.40
2019-05-03T06:19:22.891Z,16.30
2019-05-03T06:20:24.463Z,10.80
2019-05-03T06:21:24.962Z,10.80
2019-05-03T06:22:22.750Z,12.00
2019-05-03T06:23:24.659Z,12.20
2019-05-03T06:24:24.791Z,12.10
2019-05-03T06:25:26.191Z,12.60
2019-05-03T06:26:22.729Z,12.40
2019-05-03T06:27:24.430Z,10.30
2019-05-03T06:28:25.050Z,15.50
2019-05-03T06:29:24.665Z,20.20
2019-05-03T06:30:24.723Z,12.40
2019-05-03T06:31:22.871Z,12.60
2019-05-03T06:32:22.644Z,13.10
2019-05-03T06:33:24.503Z,16.40
2019-05-03T06:34:22.624Z,12.60
2019-05-03T06:35:24.411Z,14.40
2019-05-03T06:36:24.310Z,13.10
2019-05-03T06:37:22.652Z,13.50
2019-05-03T06:38:24.272Z,13.80
2019-05-03T06:39:24.740Z,16.70
2019-05-03T06:40:22.547Z,12.70
2019-05-03T06:41:25.084Z,11.20
2019-05-03T06:42:23.027Z,11.70
2019-05-03T06:43:24.289Z,10.60
2019-05-03T06:44:24.831Z,17.60
2019-05-03T06:45:25.168Z,14.60
2019-05-03T06:46:23.532Z,16.10
2019-05-03T06:47:25.352Z,8.20
2019-05-03T06:48:27.073Z,15.10
2019-05-03T06:49:25.360Z,10.50
2019-05-03T06:50:27.244Z,15.20
2019-05-03T06:51:24.835Z,12.70
2019-05-03T06:52:25.554Z,15.20
2019-05-03T06:53:25.283Z,10.70
2019-05-03T06:54:26.924Z,15.90
2019-05-03T06:55:24.788Z,10.90
2019-05-03T06:56:25.060Z,10.90
2019-05-03T06:57:25.209Z,10.40
2019-05-03T06:58:31.363Z,15.60
2019-05-03T06:59:24.992Z,10.20
2019-05-03T07:00:22.365Z,12.90
2019-05-03T07:01:22.314Z,12.80
2019-05-03T07:02:22.407Z,12.70
2019-05-03T07:03:22.314Z,9.90
2019-05-03T07:04:24.425Z,10.80
2019-05-03T07:05:22.289Z,14.40
2019-05-03T07:06:33.380Z,13.10
2019-05-03T07:07:26.053Z,12.40
2019-05-03T07:08:22.321Z,11.90
2019-05-03T07:09:22.229Z,10.20
2019-05-03T07:10:22.328Z,14.40
2019-05-03T07:11:22.244Z,9.80
2019-05-03T07:12:22.320Z,10.30
2019-05-03T07:13:22.191Z,9.30
2019-05-03T07:14:22.265Z,8.40
2019-05-03T07:15:22.171Z,8.00
2019-05-03T07:16:22.269Z,10.00
2019-05-03T07:17:22.168Z,10.20
2019-05-03T07:18:22.183Z,9.20
2019-05-03T07:19:22.130Z,11.70
2019-05-03T07:20:22.198Z,10.00
2019-05-03T07:21:22.100Z,11.10
2019-05-03T07:22:24.322Z,8.60
2019-05-03T07:23:22.098Z,13.40
2019-05-03T07:24:22.117Z,7.40
2019-05-03T07:25:22.056Z,10.90
2019-05-03T07:26:22.137Z,11.20
2019-05-03T07:27:22.056Z,11.50
2019-05-03T07:28:22.088Z,10.00
2019-05-03T07:29:22.005Z,10.40
2019-05-03T07:30:22.063Z,10.10
2019-05-03T07:31:21.992Z,10.00
2019-05-03T07:32:22.076Z,10.50
2019-05-03T07:33:21.996Z,9.10
2019-05-03T07:34:21.986Z,13.50
2019-05-03T07:35:21.945Z,7.90
2019-05-03T07:36:25.084Z,10.80
2019-05-03T07:37:24.548Z,11.20
2019-05-03T07:38:24.813Z,10.70
2019-05-03T07:39:21.900Z,11.30
2019-05-03T07:40:21.922Z,8.50
2019-05-03T07:41:24.448Z,10.20
2019-05-03T07:42:22.976Z,11.70
2019-05-03T07:43:21.885Z,8.40
2019-05-03T07:44:21.958Z,9.70
2019-05-03T07:45:21.855Z,9.90
2019-05-03T07:46:21.868Z,11.00
2019-05-03T07:47:21.815Z,7.30
2019-05-03T07:48:21.916Z,10.10
2019-05-03T07:49:21.791Z,8.60
2019-05-03T07:50:21.897Z,8.80
2019-05-03T07:51:21.793Z,9.90
2019-05-03T07:52:21.807Z,8.80
2019-05-03T07:53:21.784Z,8.90
2019-05-03T07:54:21.824Z,9.90
2019-05-03T07:55:21.727Z,10.30
2019-05-03T07:56:21.834Z,7.60
2019-05-03T07:57:21.705Z,9.20
2019-05-03T07:58:21.807Z,9.60
2019-05-03T07:59:21.735Z,9.50
2019-05-03T08:00:21.789Z,8.60
2019-05-03T08:01:21.660Z,10.90
2019-05-03T08:02:24.233Z,10.50
2019-05-03T08:03:21.676Z,8.10
2019-05-03T08:04:21.737Z,11.80
2019-05-03T08:05:21.624Z,11.80
2019-05-03T08:06:21.699Z,10.20
2019-05-03T08:07:23.094Z,9.10
2019-05-03T08:08:21.619Z,10.60
2019-05-03T08:09:21.600Z,6.50
2019-05-03T08:10:21.627Z,9.90
2019-05-03T08:11:21.565Z,10.70
2019-05-03T08:12:21.638Z,7.20
2019-05-03T08:13:21.531Z,8.60
2019-05-03T08:14:21.581Z,12.00
2019-05-03T08:15:21.696Z,7.00
2019-05-03T08:16:21.563Z,8.20
2019-05-03T08:17:21.504Z,9.40
2019-05-03T08:18:21.576Z,7.50
2019-05-03T08:19:24.398Z,10.10
2019-05-03T08:20:21.485Z,12.00
2019-05-03T08:21:21.440Z,9.20
2019-05-03T08:22:21.496Z,9.30
2019-05-03T08:23:28.540Z,10.40
2019-05-03T08:24:22.444Z,9.20
2019-05-03T08:25:21.559Z,10.60
2019-05-03T08:26:21.386Z,8.70
2019-05-03T08:27:21.440Z,6.90
2019-05-03T08:28:21.380Z,9.00
2019-05-03T08:29:21.504Z,7.90
2019-05-03T08:30:21.342Z,7.70
2019-05-03T08:31:23.903Z,7.50
2019-05-03T08:32:21.412Z,11.20
2019-05-03T08:33:21.580Z,7.00
2019-05-03T08:34:21.705Z,10.60
2019-05-03T08:35:21.430Z,11.00
2019-05-03T08:36:21.288Z,7.70
2019-05-03T08:37:21.303Z,6.60
2019-05-03T08:38:21.281Z,8.10
2019-05-03T08:39:21.356Z,6.70
2019-05-03T08:40:21.277Z,10.90
2019-05-03T08:41:21.333Z,13.20
2019-05-03T08:42:21.221Z,10.00
2019-05-03T08:43:21.245Z,6.20
2019-05-03T08:44:21.195Z,10.50
2019-05-03T08:45:21.293Z,8.40
2019-05-03T08:46:21.172Z,9.80
2019-05-03T08:47:21.280Z,8.30
2019-05-03T08:48:21.159Z,7.90
2019-05-03T08:49:21.190Z,11.20
2019-05-03T08:50:21.729Z,8.60
2019-05-03T08:51:21.194Z,9.30
2019-05-03T08:52:21.107Z,10.40
2019-05-03T08:53:21.206Z,8.00
2019-05-03T08:54:21.080Z,8.60
2019-05-03T08:55:21.157Z,8.20
2019-05-03T08:56:21.061Z,9.90
2019-05-03T08:57:21.139Z,10.00
2019-05-03T08:58:21.046Z,6.40
2019-05-03T08:59:29.737Z,9.20
2019-05-03T09:00:22.064Z,9.60
2019-05-03T09:01:21.076Z,7.90
2019-05-03T09:02:20.996Z,7.80
2019-05-03T09:03:21.075Z,7.20
2019-05-03T09:04:33.513Z,10.20
2019-05-03T09:05:22.037Z,8.90
2019-05-03T09:06:21.103Z,7.70
2019-05-03T09:07:20.966Z,8.40
2019-05-03T09:08:21.160Z,11.00
2019-05-03T09:09:20.951Z,9.40
2019-05-03T09:10:21.048Z,9.30
2019-05-03T09:11:30.737Z,9.80
2019-05-03T09:12:21.898Z,8.30
2019-05-03T09:13:20.946Z,9.60
2019-05-03T09:15:22.154Z,9.60
2019-05-03T09:16:20.944Z,10.30
2019-05-03T09:17:20.862Z,14.30
2019-05-03T09:18:20.826Z,12.00
2019-05-03T09:19:20.877Z,8.90
2019-05-03T09:20:20.817Z,10.50
2019-05-03T09:21:20.927Z,9.30
2019-05-03T09:22:20.780Z,9.00
2019-05-03T09:23:23.383Z,6.90
2019-05-03T09:24:21.765Z,7.30
2019-05-03T09:25:20.815Z,13.10
2019-05-03T09:26:20.759Z,5.80
2019-05-03T09:27:20.837Z,8.60
2019-05-03T09:28:20.719Z,7.20
2019-05-03T09:29:20.738Z,11.40
2019-05-03T09:31:21.845Z,9.20
2019-05-03T09:32:20.765Z,6.30
2019-05-03T09:33:20.663Z,6.70
2019-05-03T09:34:20.674Z,4.50
2019-05-03T09:35:30.488Z,8.50
2019-05-03T09:36:21.657Z,4.00
2019-05-03T09:37:20.696Z,8.60
2019-05-03T09:38:20.594Z,6.10
2019-05-03T09:39:20.710Z,6.20
2019-05-03T09:40:20.580Z,6.60
2019-05-03T09:41:20.661Z,9.30
2019-05-03T09:42:20.580Z,7.10
2019-05-03T09:43:20.628Z,10.20
2019-05-03T09:44:20.537Z,6.80
2019-05-03T09:45:20.648Z,7.40
2019-05-03T09:46:23.326Z,5.90
2019-05-03T09:47:21.584Z,12.00
2019-05-03T09:48:20.503Z,4.30
2019-05-03T09:49:20.576Z,7.40
2019-05-03T09:50:20.473Z,7.90
2019-05-03T09:51:20.482Z,8.00
2019-05-03T09:52:20.481Z,7.90
2019-05-03T09:53:20.498Z,5.60
2019-05-03T09:54:20.431Z,6.40
2019-05-03T09:55:20.516Z,6.40
2019-05-03T09:56:20.408Z,9.10
2019-05-03T09:57:20.571Z,8.40
2019-05-03T09:58:20.398Z,6.80
2019-05-03T09:59:20.437Z,8.70
2019-05-03T10:00:20.369Z,10.80
2019-05-03T10:02:21.557Z,10.30
2019-05-03T10:03:20.359Z,7.70
2019-05-03T10:04:20.315Z,8.10
2019-05-03T10:05:20.385Z,6.90
2019-05-03T10:06:20.301Z,8.50
2019-05-03T10:07:20.437Z,7.60
2019-05-03T10:08:20.287Z,9.80
2019-05-03T10:09:20.299Z,11.60
2019-05-03T10:10:20.271Z,7.10
2019-05-03T10:11:20.373Z,8.10
2019-05-03T10:12:20.268Z,9.70
2019-05-03T10:13:23.604Z,8.90
2019-05-03T10:14:21.214Z,8.70
2019-05-03T10:15:20.242Z,9.90
2019-05-03T10:16:20.197Z,7.80
2019-05-03T10:17:20.305Z,9.80
2019-05-03T10:18:20.160Z,7.60
2019-05-03T10:19:20.271Z,6.60
2019-05-03T10:20:20.141Z,8.20
2019-05-03T10:21:20.184Z,5.50
2019-05-03T10:22:20.143Z,7.60
2019-05-03T10:23:20.240Z,7.90
2019-05-03T10:24:20.102Z,10.20
2019-05-03T10:25:20.212Z,7.50
2019-05-03T10:26:20.091Z,8.60
2019-05-03T10:27:20.163Z,7.20
2019-05-03T10:28:20.065Z,6.60
2019-05-03T10:29:20.132Z,8.30
2019-05-03T10:30:20.030Z,9.40
2019-05-03T10:31:20.162Z,6.80
2019-05-03T10:32:20.020Z,7.50
2019-05-03T10:33:20.108Z,6.70
2019-05-03T10:34:20.000Z,7.40
2019-05-03T10:35:20.081Z,9.60
2019-05-03T10:36:20.162Z,7.70
2019-05-03T10:37:19.989Z,8.60
2019-05-03T10:38:19.974Z,6.40
2019-05-03T10:39:19.998Z,9.60
2019-05-03T10:40:19.923Z,8.50
2019-05-03T10:42:21.049Z,6.30
2019-05-03T10:43:20.069Z,11.20
2019-05-03T10:44:19.912Z,6.60
2019-05-03T10:45:19.955Z,9.90
2019-05-03T10:46:19.858Z,7.80
2019-05-03T10:47:19.953Z,5.30
2019-05-03T10:48:19.871Z,9.10
2019-05-03T10:49:19.863Z,8.20
2019-05-03T10:50:19.824Z,7.90
2019-05-03T10:51:19.874Z,11.40
2019-05-03T10:52:19.803Z,10.40
2019-05-03T10:53:19.940Z,8.30
2019-05-03T10:54:19.774Z,8.70
2019-05-03T10:55:19.802Z,8.70
2019-05-03T10:56:23.166Z,10.70
2019-05-03T10:57:19.820Z,12.70
2019-05-03T10:58:19.763Z,10.60
2019-05-03T10:59:20.814Z,9.60
2019-05-03T11:00:42.512Z,6.80
2019-05-03T11:01:20.716Z,7.20
2019-05-03T11:02:19.698Z,6.70
2019-05-03T11:03:19.761Z,6.90
2019-05-03T11:04:19.851Z,8.10
2019-05-03T11:05:19.773Z,9.00
2019-05-03T11:06:19.638Z,7.80
2019-05-03T11:07:19.686Z,9.50
2019-05-03T11:08:19.648Z,12.70
2019-05-03T11:09:19.747Z,11.70
2019-05-03T11:10:19.601Z,10.60
2019-05-03T11:11:19.707Z,10.80
2019-05-03T11:12:19.590Z,10.20
2019-05-03T11:13:19.784Z,7.00
2019-05-03T11:14:19.717Z,8.60
2019-05-03T11:15:19.639Z,5.00
2019-05-03T11:16:19.536Z,6.90
2019-05-03T11:17:19.548Z,8.20
2019-05-03T11:18:19.523Z,6.90
2019-05-03T11:19:19.609Z,7.80
2019-05-03T11:20:28.445Z,7.30
2019-05-03T11:21:28.150Z,6.60
2019-05-03T11:22:20.472Z,5.70
2019-05-03T11:23:19.485Z,8.50
2019-05-03T11:24:19.446Z,7.30
2019-05-03T11:25:19.545Z,7.90
2019-05-03T11:26:19.438Z,6.70
2019-05-03T11:27:19.529Z,5.90
2019-05-03T11:28:19.417Z,6.00
2019-05-03T11:29:19.472Z,6.40
2019-05-03T11:30:19.426Z,7.40
2019-05-03T11:31:19.442Z,7.50
2019-05-03T11:32:19.466Z,7.10
2019-05-03T11:33:19.453Z,7.40
2019-05-03T11:34:22.382Z,7.50
2019-05-03T11:35:19.436Z,6.70
2019-05-03T11:36:19.982Z,5.50
2019-05-03T11:37:19.377Z,8.30
2019-05-03T11:38:19.291Z,7.80
2019-05-03T11:39:19.396Z,6.20
2019-05-03T11:40:19.320Z,7.60
2019-05-03T11:41:30.352Z,5.80
2019-05-03T11:42:20.243Z,8.40
2019-05-03T11:43:19.342Z,6.80
2019-05-03T11:44:19.236Z,5.20
2019-05-03T11:45:19.487Z,6.90
2019-05-03T11:46:19.218Z,6.40
2019-05-03T11:47:19.249Z,6.50
2019-05-03T11:48:19.191Z,8.50
2019-05-03T11:49:19.266Z,10.10
2019-05-03T11:50:19.210Z,6.10
2019-05-03T11:51:19.213Z,5.80
2019-05-03T11:52:19.148Z,5.20
2019-05-03T11:53:19.194Z,9.60
2019-05-03T11:54:19.124Z,8.20
2019-05-03T11:55:19.244Z,8.60
2019-05-03T11:56:19.102Z,9.10
2019-05-03T11:57:19.216Z,8.80
2019-05-03T11:58:19.124Z,7.10
2019-05-03T11:59:19.137Z,6.90
2019-05-03T12:00:19.100Z,6.40
2019-05-03T12:01:20.286Z,6.10
2019-05-03T12:02:19.025Z,5.20
2019-05-03T12:03:19.067Z,8.90
2019-05-03T12:04:19.012Z,8.40
2019-05-03T12:05:19.063Z,4.00
2019-05-03T12:06:19.016Z,7.10
2019-05-03T12:07:19.091Z,8.70
2019-05-03T12:08:18.972Z,5.70
2019-05-03T12:09:18.997Z,4.70
2019-05-03T12:10:33.116Z,6.10
2019-05-03T12:11:19.966Z,7.30
2019-05-03T12:12:19.009Z,8.50
2019-05-03T12:13:18.908Z,11.40
2019-05-03T12:14:18.927Z,8.50
2019-05-03T12:15:18.888Z,5.70
2019-05-03T12:16:25.908Z,9.20
2019-05-03T12:17:26.004Z,5.70
2019-05-03T12:18:19.930Z,7.40
2019-05-03T12:19:22.446Z,10.70
2019-05-03T12:20:21.316Z,9.00
2019-05-03T12:21:20.420Z,13.20
2019-05-03T12:22:19.421Z,11.80
2019-05-03T12:23:19.502Z,5.10
2019-05-03T12:24:19.291Z,6.10
2019-05-03T12:25:19.576Z,5.70
2019-05-03T12:26:19.481Z,4.90
2019-05-03T12:27:18.826Z,10.40
2019-05-03T12:28:18.750Z,7.30
2019-05-03T12:29:18.829Z,10.90
2019-05-03T12:30:18.726Z,4.00
2019-05-03T12:31:33.480Z,5.80
2019-05-03T12:32:19.699Z,7.00
2019-05-03T12:33:18.747Z,4.90
2019-05-03T12:34:18.684Z,4.70
2019-05-03T12:35:18.771Z,8.70
2019-05-03T12:36:18.714Z,7.60
2019-05-03T12:37:18.709Z,8.00
2019-05-03T12:38:18.636Z,7.10
2019-05-03T12:39:26.694Z,5.70
2019-05-03T12:40:19.617Z,5.40
2019-05-03T12:41:18.758Z,8.00
2019-05-03T12:42:18.965Z,5.30
2019-05-03T12:43:18.656Z,6.50
2019-05-03T12:44:18.569Z,7.80
2019-05-03T12:45:18.651Z,14.00
2019-05-03T12:46:18.569Z,7.80
2019-05-03T12:47:18.686Z,6.00
2019-05-03T12:48:18.535Z,11.30
2019-05-03T12:49:18.566Z,11.70
2019-05-03T12:50:18.501Z,9.00
2019-05-03T12:51:18.585Z,10.10
2019-05-03T12:52:19.313Z,9.60
2019-05-03T12:53:18.604Z,7.60
2019-05-03T12:54:18.456Z,5.60
2019-05-03T12:55:18.493Z,8.50
2019-05-03T12:56:23.335Z,5.60
2019-05-03T12:57:19.572Z,7.50
2019-05-03T12:58:18.456Z,10.70
2019-05-03T12:59:18.519Z,7.70
2019-05-03T13:00:18.391Z,7.80
2019-05-03T13:01:18.434Z,6.40
2019-05-03T13:02:18.404Z,7.40
2019-05-03T13:03:18.499Z,5.90
2019-05-03T13:04:18.357Z,8.70
2019-05-03T13:05:18.358Z,5.40
2019-05-03T13:06:18.344Z,6.60
2019-05-03T13:07:18.380Z,6.00